Time;durP1;ratioP1;P1;durP2;ratioP2;P2;SDS_P1;SDS_P2;PMS_P1;PMS_P2;Temp;Humidity;BMP_temperature;BMP_pressure;BME280_temperature;BME280_humidity;BME280_pressure;Samples;Min_cycle;Max_cycle;Signal;HPM_P1;HPM_P2
2023/05/07 00:04:13;;;;;;;24.92;22.92;;;;;;;9.80;100.00;100337.31;10598639;28;20054;-81
2023/05/07 00:09:16;;;;;;;23.65;21.77;;;;;;;9.68;100.00;100343.72;10574657;28;20050;-81
2023/05/07 00:14:18;;;;;;;24.13;22.08;;;;;;;9.70;100.00;100347.19;10591859;28;20036;-80
2023/05/07 00:19:19;;;;;;;18.20;16.77;;;;;;;9.56;100.00;100339.63;10590870;28;20048;-81
2023/05/07 00:24:21;;;;;;;17.73;16.20;;;;;;;9.62;100.00;100335.13;10572527;28;20043;-81
2023/05/07 00:29:23;;;;;;;18.98;17.52;;;;;;;9.48;100.00;100344.19;10573167;28;20047;-82
2023/05/07 00:34:25;;;;;;;19.95;18.35;;;;;;;9.66;100.00;100340.28;10571642;28;20039;-81
2023/05/07 00:39:26;;;;;;;23.73;21.73;;;;;;;9.65;100.00;100348.16;10594989;28;20147;-80
2023/05/07 00:44:29;;;;;;;24.33;22.45;;;;;;;9.51;100.00;100348.47;10618933;27;20028;-80
2023/05/07 00:49:45;;;;;;;25.33;23.33;;;;;;;9.42;100.00;100336.44;10610881;28;20047;-82
2023/05/07 00:54:47;;;;;;;25.70;23.65;;;;;;;9.57;100.00;100336.09;10624263;22;20043;-81
2023/05/07 00:59:51;;;;;;;28.08;25.65;;;;;;;9.59;100.00;100342.16;10586931;28;20047;-81
2023/05/07 01:04:53;;;;;;;25.88;23.90;;;;;;;9.64;100.00;100335.94;10622012;28;20078;-81
2023/05/07 01:09:55;;;;;;;23.10;21.42;;;;;;;9.52;100.00;100335.34;10628774;28;20043;-81
2023/05/07 01:14:58;;;;;;;24.50;22.80;;;;;;;9.58;100.00;100347.44;10611442;28;20138;-81
2023/05/07 01:20:00;;;;;;;22.25;20.65;;;;;;;9.84;100.00;100342.47;10610854;28;20111;-80
2023/05/07 01:25:03;;;;;;;21.60;19.77;;;;;;;9.80;100.00;100348.69;10610116;28;20071;-81
2023/05/07 01:30:07;;;;;;;23.23;21.67;;;;;;;9.53;100.00;100347.56;10584478;28;20047;-81
2023/05/07 01:35:12;;;;;;;22.95;21.25;;;;;;;9.39;100.00;100346.16;10582490;28;20044;-81
2023/05/07 01:40:14;;;;;;;23.67;21.95;;;;;;;9.31;100.00;100346.31;10599352;28;20051;-81
2023/05/07 01:45:16;;;;;;;20.90;19.40;;;;;;;9.42;100.00;100352.16;10580881;28;20040;-82
2023/05/07 01:50:19;;;;;;;21.20;19.67;;;;;;;9.65;100.00;100356.94;10581315;28;20078;-81
2023/05/07 01:55:21;;;;;;;20.45;19.08;;;;;;;9.66;100.00;100353.41;10617189;28;20393;-81
2023/05/07 02:00:23;;;;;;;18.70;17.40;;;;;;;9.56;100.00;100349.22;10597298;28;20104;-81
2023/05/07 02:05:24;;;;;;;21.77;20.08;;;;;;;9.43;100.00;100345.16;10606415;28;20035;-81
2023/05/07 02:10:33;;;;;;;22.23;20.48;;;;;;;9.63;100.00;100348.22;10600911;28;20040;-82
2023/05/07 02:15:35;;;;;;;20.40;19.00;;;;;;;9.67;100.00;100351.63;10581193;28;20047;-82
2023/05/07 02:20:38;;;;;;;22.95;21.00;;;;;;;9.50;100.00;100363.38;10598201;28;20469;-81
2023/05/07 02:25:40;;;;;;;23.08;21.33;;;;;;;9.54;100.00;100351.91;10579649;28;20044;-81
2023/05/07 02:30:41;;;;;;;20.40;18.80;;;;;;;9.83;100.00;100366.13;10581989;28;20086;-81
2023/05/07 02:35:44;;;;;;;18.80;17.55;;;;;;;9.65;100.00;100367.44;10597972;28;20398;-81
2023/05/07 02:40:48;;;;;;;18.58;17.25;;;;;;;9.72;100.00;100365.50;10578758;28;20473;-81
2023/05/07 02:46:09;;;;;;;18.40;17.20;;;;;;;9.58;100.00;100360.56;10596948;28;20069;-81
2023/05/07 02:51:19;;;;;;;19.35;18.05;;;;;;;9.54;100.00;100361.53;10579567;28;20039;-81
2023/05/07 02:56:26;;;;;;;18.80;17.50;;;;;;;9.48;100.00;100362.53;10564166;28;20044;-81
2023/05/07 03:01:28;;;;;;;18.42;16.88;;;;;;;9.37;100.00;100364.53;10583537;28;20051;-80
2023/05/07 03:06:36;;;;;;;16.50;15.40;;;;;;;9.26;100.00;100361.28;10578826;28;20126;-81
2023/05/07 03:11:39;;;;;;;16.08;14.88;;;;;;;9.33;100.00;100355.00;10577707;28;20504;-81
2023/05/07 03:16:40;;;;;;;15.82;14.40;;;;;;;9.31;100.00;100362.91;10577900;28;20113;-81
2023/05/07 03:21:42;;;;;;;15.05;13.95;;;;;;;9.23;100.00;100370.06;10560650;28;20052;-81
2023/05/07 03:26:44;;;;;;;15.15;13.82;;;;;;;9.23;100.00;100362.19;10594633;28;20481;-81
2023/05/07 03:31:46;;;;;;;13.80;12.80;;;;;;;9.16;100.00;100371.06;10619672;28;20050;-80
2023/05/07 03:36:48;;;;;;;14.88;13.80;;;;;;;9.06;100.00;100370.41;10622009;28;20067;-80
2023/05/07 03:41:50;;;;;;;13.57;12.48;;;;;;;9.01;100.00;100374.88;10597110;28;20048;-80
2023/05/07 03:46:52;;;;;;;15.80;14.60;;;;;;;8.98;100.00;100376.69;10620919;28;20047;-80
2023/05/07 03:51:55;;;;;;;15.40;14.23;;;;;;;9.24;100.00;100376.19;10587063;28;20051;-82
2023/05/07 03:56:57;;;;;;;15.45;14.10;;;;;;;9.17;100.00;100383.31;10580739;28;20067;-81
2023/05/07 04:01:59;;;;;;;15.85;14.70;;;;;;;9.07;100.00;100390.53;10579270;28;20050;-81
2023/05/07 04:07:07;;;;;;;16.30;15.07;;;;;;;8.91;100.00;100382.97;10596588;28;20039;-81
2023/05/07 04:12:15;;;;;;;15.05;13.95;;;;;;;9.01;100.00;100388.00;10598405;28;20114;-81
2023/05/07 04:17:16;;;;;;;16.25;15.05;;;;;;;9.09;100.00;100386.09;10581095;28;20455;-80
2023/05/07 04:22:18;;;;;;;16.95;15.65;;;;;;;9.07;100.00;100389.63;10602148;28;20417;-80
2023/05/07 04:27:21;;;;;;;17.08;15.90;;;;;;;9.00;100.00;100390.66;10593029;28;20050;-81
2023/05/07 04:32:24;;;;;;;18.05;16.65;;;;;;;9.14;100.00;100400.88;10577497;28;20048;-81
2023/05/07 04:37:27;;;;;;;17.73;16.23;;;;;;;9.04;100.00;100411.53;10594858;28;20114;-81
2023/05/07 04:42:29;;;;;;;16.92;15.25;;;;;;;9.21;100.00;100421.72;10557977;28;20047;-80
2023/05/07 04:47:31;;;;;;;15.88;14.68;;;;;;;9.10;100.00;100419.28;10593221;28;20127;-81
2023/05/07 04:52:34;;;;;;;16.27;14.60;;;;;;;8.89;100.00;100431.94;10575203;28;20139;-81
2023/05/07 04:57:37;;;;;;;16.65;15.25;;;;;;;9.00;100.00;100430.84;10573499;28;20504;-81
2023/05/07 05:02:39;;;;;;;17.15;15.75;;;;;;;8.92;100.00;100445.84;10558455;28;20040;-81
2023/05/07 05:07:41;;;;;;;17.17;15.77;;;;;;;8.91;100.00;100440.66;10574496;28;20036;-80
2023/05/07 05:12:44;;;;;;;16.00;14.75;;;;;;;9.14;100.00;100435.81;10557630;28;20485;-81
2023/05/07 05:17:46;;;;;;;15.30;14.10;;;;;;;9.23;100.00;100440.03;10575603;28;20032;-80
2023/05/07 05:22:49;;;;;;;15.20;13.93;;;;;;;9.20;100.00;100438.31;10578048;28;20111;-80
2023/05/07 05:27:50;;;;;;;14.65;13.45;;;;;;;9.14;100.00;100437.59;10588437;28;20042;-81
2023/05/07 05:32:52;;;;;;;12.75;11.75;;;;;;;9.22;100.00;100452.28;10590758;28;20055;-80
2023/05/07 05:37:54;;;;;;;13.70;12.60;;;;;;;9.16;100.00;100455.00;10572176;28;20046;-80
2023/05/07 05:42:57;;;;;;;12.95;11.95;;;;;;;9.30;100.00;100457.38;10583637;28;20100;-81
2023/05/07 05:48:00;;;;;;;13.15;12.13;;;;;;;9.35;100.00;100469.50;10564222;28;20040;-82
2023/05/07 05:53:03;;;;;;;14.02;12.95;;;;;;;9.36;100.00;100467.75;10581256;28;20111;-81
2023/05/07 05:58:05;;;;;;;14.40;13.30;;;;;;;9.23;100.00;100469.75;10587078;28;20094;-82
2023/05/07 06:03:10;;;;;;;15.70;14.32;;;;;;;9.36;100.00;100475.63;10599610;28;20039;-80
2023/05/07 06:08:13;;;;;;;14.70;13.52;;;;;;;9.35;100.00;100484.41;10605264;28;20040;-81
2023/05/07 06:13:15;;;;;;;12.90;11.95;;;;;;;9.35;100.00;100497.50;10584670;28;20044;-81
2023/05/07 06:18:16;;;;;;;13.27;12.27;;;;;;;9.45;100.00;100498.19;10599644;28;20047;-81
2023/05/07 06:23:18;;;;;;;12.63;11.50;;;;;;;9.34;100.00;100504.53;10601286;28;20044;-81
2023/05/07 06:28:20;;;;;;;11.75;10.77;;;;;;;9.24;100.00;100504.72;10616045;28;20118;-82
2023/05/07 06:33:22;;;;;;;15.60;9.52;;;;;;;9.29;100.00;100501.09;10580749;28;20054;-80
2023/05/07 06:38:23;;;;;;;10.43;9.52;;;;;;;9.50;99.49;100496.34;10603485;28;20076;-81
2023/05/07 06:43:25;;;;;;;14.30;9.73;;;;;;;9.45;99.99;100506.94;10605651;28;20055;-80
2023/05/07 06:49:02;;;;;;;9.32;8.63;;;;;;;9.51;100.00;100522.53;10603235;28;20040;-81
2023/05/07 06:54:05;;;;;;;9.18;8.38;;;;;;;9.47;99.13;100514.75;10611469;22;20134;-81
2023/05/07 06:59:19;;;;;;;10.02;9.23;;;;;;;9.42;98.70;100516.59;10522652;28;20558;-82
2023/05/07 07:04:25;;;;;;;9.02;8.32;;;;;;;9.25;100.00;100520.44;10538618;28;20036;-81
2023/05/07 07:09:34;;;;;;;9.60;8.80;;;;;;;9.49;98.61;100518.22;10554772;28;20153;-81
2023/05/07 07:14:38;;;;;;;8.32;7.68;;;;;;;9.46;98.02;100519.13;10538187;28;20051;-80
2023/05/07 07:19:42;;;;;;;9.90;9.10;;;;;;;9.59;97.50;100522.41;10537883;28;20059;-81
2023/05/07 07:24:44;;;;;;;10.02;9.23;;;;;;;9.46;100.00;100539.28;10540470;28;20062;-81
2023/05/07 07:29:51;;;;;;;9.60;8.90;;;;;;;9.44;100.00;100526.19;10556978;28;20052;-79
2023/05/07 07:34:53;;;;;;;8.05;7.30;;;;;;;9.33;99.19;100533.38;10539607;28;20046;-81
2023/05/07 07:39:55;;;;;;;5.53;5.13;;;;;;;9.56;95.21;100535.56;10536366;28;20101;-79
2023/05/07 07:44:58;;;;;;;5.32;4.93;;;;;;;9.53;93.93;100530.41;10553032;28;20044;-81
2023/05/07 07:50:03;;;;;;;4.72;4.43;;;;;;;9.53;93.28;100543.53;10535915;28;20055;-81
2023/05/07 07:55:05;;;;;;;4.13;3.83;;;;;;;9.51;93.50;100548.78;10552644;28;20505;-81
2023/05/07 08:00:09;;;;;;;4.50;4.13;;;;;;;9.58;92.43;100549.53;10551283;28;20036;-81
2023/05/07 08:05:17;;;;;;;4.38;4.07;;;;;;;9.66;92.59;100552.88;10550731;28;20048;-80
2023/05/07 08:10:22;;;;;;;3.90;3.60;;;;;;;9.74;91.10;100556.22;10533676;28;20410;-80
2023/05/07 08:15:31;;;;;;;4.40;4.10;;;;;;;9.64;93.43;100559.91;10532622;28;20416;-81
2023/05/07 08:20:39;;;;;;;4.00;3.60;;;;;;;9.77;92.28;100568.41;10534647;28;20044;-81
2023/05/07 08:25:49;;;;;;;4.13;3.80;;;;;;;9.75;93.26;100570.22;10527589;28;20060;-81
2023/05/07 08:30:51;;;;;;;4.25;3.95;;;;;;;9.90;91.06;100569.91;10533696;28;20040;-80
2023/05/07 08:35:54;;;;;;;3.60;3.30;;;;;;;10.03;91.09;100568.75;10533882;28;20134;-80
2023/05/07 08:40:56;;;;;;;3.33;3.08;;;;;;;10.30;86.74;100562.06;10517525;28;20109;-81
2023/05/07 08:46:02;;;;;;;3.25;2.95;;;;;;;10.19;87.20;100571.91;10534969;28;20139;-81
2023/05/07 08:51:08;;;;;;;3.10;2.80;;;;;;;10.35;88.30;100575.94;10532879;28;20071;-80
2023/05/07 08:56:12;;;;;;;4.07;3.78;;;;;;;10.37;86.55;100577.72;10551831;28;20032;-82
2023/05/07 09:01:16;;;;;;;3.70;3.50;;;;;;;10.51;86.11;100583.50;10541556;28;20536;-82
2023/05/07 09:06:21;;;;;;;;;;;;;;;10.63;83.65;100579.75;10561264;28;20044;-83
2023/05/07 09:11:24;;;;;;;4.90;4.50;;;;;;;10.55;84.42;100585.19;10572306;28;19912;-81
2023/05/07 09:16:30;;;;;;;7.20;6.60;;;;;;;10.11;88.54;100595.72;10570090;28;20214;-81
2023/05/07 09:21:33;;;;;;;6.72;6.25;;;;;;;10.18;89.20;100596.47;10552782;28;20055;-81
2023/05/07 09:26:39;;;;;;;7.68;7.07;;;;;;;10.51;88.01;100597.53;10557568;28;20032;-81
2023/05/07 09:31:42;;;;;;;7.15;6.65;;;;;;;10.77;87.28;100594.28;10578731;28;20040;-80
2023/05/07 09:36:48;;;;;;;6.88;6.38;;;;;;;11.17;82.69;100592.47;10550517;28;20040;-82
2023/05/07 09:41:52;;;;;;;7.15;6.55;;;;;;;10.77;83.71;100591.66;10560110;28;20035;-81
2023/05/07 09:47:00;;;;;;;8.35;7.55;;;;;;;10.68;84.10;100586.63;10576425;28;20040;-79
2023/05/07 09:52:10;;;;;;;7.53;6.93;;;;;;;10.57;85.26;100597.38;10576371;28;20059;-80
2023/05/07 09:57:20;;;;;;;6.55;6.05;;;;;;;10.73;82.98;100599.66;10577881;28;20028;-80
2023/05/07 10:02:29;;;;;;;6.75;6.25;;;;;;;10.74;81.12;100593.50;10575979;28;20055;-80
2023/05/07 10:07:31;;;;;;;6.47;5.97;;;;;;;10.85;81.14;100594.97;10573220;28;20028;-78
2023/05/07 10:12:40;;;;;;;8.55;5.47;;;;;;;11.16;78.02;100603.88;10577128;28;20122;-80
2023/05/07 10:18:02;;;;;;;7.72;7.22;;;;;;;10.83;81.40;100604.66;10579651;28;20039;-80
2023/05/07 10:23:05;;;;;;;8.10;7.50;;;;;;;10.75;84.08;100613.63;10595504;28;20040;-80
2023/05/07 10:28:16;;;;;;;7.88;7.30;;;;;;;11.03;84.14;100604.19;10594021;28;20043;-81
2023/05/07 10:33:25;;;;;;;6.95;6.45;;;;;;;11.14;78.66;100603.06;10568331;28;20104;-81
2023/05/07 10:38:27;;;;;;;7.05;6.65;;;;;;;11.33;79.00;100599.94;10550151;28;20401;-81
2023/05/07 10:43:41;;;;;;;7.45;6.85;;;;;;;11.21;78.65;100604.63;10547287;28;20505;-81
2023/05/07 10:49:03;;;;;;;6.72;6.22;;;;;;;11.09;78.24;100596.13;10560184;28;20497;-80
2023/05/07 10:54:23;;;;;;;6.50;6.10;;;;;;;10.92;78.69;100595.69;10559671;28;20052;-80
2023/05/07 10:59:43;;;;;;;6.85;6.35;;;;;;;11.36;78.73;100593.69;10540960;28;20044;-81
2023/05/07 11:05:26;;;;;;;6.93;6.53;;;;;;;11.92;75.83;100593.97;10538418;28;20505;-82
2023/05/07 11:10:58;;;;;;;5.85;5.43;;;;;;;12.38;72.30;100589.97;10380752;28;20132;-81
2023/05/07 11:16:22;;;;;;;5.78;5.38;;;;;;;12.42;70.44;100593.38;10384136;28;20042;-82
2023/05/07 11:21:31;;;;;;;5.70;5.20;;;;;;;12.17;70.53;100591.47;10379374;28;20527;-81
2023/05/07 11:26:49;;;;;;;5.72;5.32;;;;;;;11.87;72.82;100587.97;10356783;28;20052;-81
2023/05/07 11:31:54;;;;;;;5.22;4.82;;;;;;;12.01;71.97;100583.16;10372326;28;20053;-82
2023/05/07 11:36:59;;;;;;;5.28;4.97;;;;;;;12.09;71.15;100588.22;10364761;28;20061;-81
2023/05/07 11:42:37;;;;;;;5.90;5.50;;;;;;;12.18;71.57;100587.94;10390277;28;20097;-81
2023/05/07 11:47:41;;;;;;;5.47;4.97;;;;;;;12.61;70.24;100581.34;10524848;28;20067;-81
2023/05/07 11:52:52;;;;;;;4.90;4.60;;;;;;;12.60;68.93;100590.19;10536497;28;20052;-80
2023/05/07 11:57:54;;;;;;;4.82;4.43;;;;;;;12.47;70.40;100587.06;10554334;28;20032;-79
2023/05/07 12:02:55;;;;;;;5.47;5.15;;;;;;;12.40;71.56;100590.81;10536526;28;20047;-80
2023/05/07 12:07:57;;;;;;;5.68;5.18;;;;;;;12.38;71.87;100595.25;10535880;28;20108;-82
2023/05/07 12:12:59;;;;;;;6.07;5.47;;;;;;;12.76;70.54;100582.66;10564847;28;20040;-81
2023/05/07 12:18:01;;;;;;;5.35;4.95;;;;;;;12.75;71.61;100588.81;10545002;28;20067;-81
2023/05/07 12:23:03;;;;;;;4.82;4.53;;;;;;;13.08;68.48;100589.53;10525419;28;20504;-82
2023/05/07 12:28:07;;;;;;;4.78;4.47;;;;;;;12.96;69.90;100605.75;10540423;28;20040;-82
2023/05/07 12:33:09;;;;;;;5.15;4.75;;;;;;;12.86;69.41;100598.13;10573143;28;20040;-80
2023/05/07 12:38:13;;;;;;;4.82;4.53;;;;;;;12.84;71.38;100605.25;10590575;28;20119;-80
2023/05/07 12:43:18;;;;;;;5.93;5.43;;;;;;;12.88;70.15;100600.72;10587393;28;20028;-80
2023/05/07 12:48:21;;;;;;;5.07;4.78;;;;;;;12.94;69.74;100592.63;10573420;28;20123;-80
2023/05/07 12:53:26;;;;;;;4.32;4.03;;;;;;;12.81;69.40;100600.06;10558597;28;20043;-79
2023/05/07 12:58:30;;;;;;;4.82;4.43;;;;;;;12.81;69.61;100600.06;10543772;28;20044;-78
2023/05/07 13:03:34;;;;;;;5.10;4.80;;;;;;;12.91;70.17;100597.97;10542256;28;20036;-79
2023/05/07 13:08:39;;;;;;;4.03;3.78;;;;;;;13.59;69.85;100592.19;10531285;28;20043;-79
2023/05/07 13:13:42;;;;;;;5.15;4.50;;;;;;;13.17;68.93;100591.84;10526623;28;20040;-80
2023/05/07 13:18:45;;;;;;;4.43;4.13;;;;;;;13.29;68.13;100583.56;10544105;28;20547;-78
2023/05/07 13:23:47;;;;;;;5.05;4.72;;;;;;;13.03;70.24;100586.19;10541894;28;20493;-80
2023/05/07 13:28:49;;;;;;;4.55;4.25;;;;;;;13.03;68.23;100581.75;10545663;28;20047;-80
2023/05/07 13:33:50;;;;;;;4.22;3.92;;;;;;;13.14;67.51;100576.97;10524763;28;20055;-78
2023/05/07 13:38:52;;;;;;;4.38;4.07;;;;;;;13.06;68.14;100576.38;10543823;28;20066;-80
2023/05/07 13:43:54;;;;;;;4.07;3.80;;;;;;;13.02;68.51;100569.47;10543736;28;20056;-80
2023/05/07 13:48:56;;;;;;;4.10;3.90;;;;;;;13.08;67.17;100571.03;10533193;28;20044;-80
2023/05/07 13:53:58;;;;;;;3.30;3.10;;;;;;;12.97;67.85;100576.69;10533992;28;20085;-79
2023/05/07 13:59:00;;;;;;;3.33;3.13;;;;;;;13.09;67.34;100573.63;10559105;28;20059;-79
2023/05/07 14:04:01;;;;;;;3.60;3.40;;;;;;;13.19;67.60;100581.22;10559661;28;20466;-78
2023/05/07 14:09:03;;;;;;;4.13;3.83;;;;;;;13.28;66.74;100571.28;10554172;28;20194;-79
2023/05/07 14:14:05;;;;;;;4.38;4.05;;;;;;;13.27;66.47;100569.53;10536821;28;20050;-79
2023/05/07 14:19:07;;;;;;;3.75;3.45;;;;;;;13.34;65.60;100571.06;10539908;28;20036;-79
2023/05/07 14:24:09;;;;;;;2.42;2.33;;;;;;;13.19;66.78;100566.25;10558579;28;20040;-79
2023/05/07 14:29:11;;;;;;;2.88;2.67;;;;;;;13.11;68.05;100568.31;10556916;28;20052;-79
2023/05/07 14:34:12;;;;;;;2.13;2.03;;;;;;;13.15;67.28;100569.94;10541472;28;20063;-79
2023/05/07 14:39:14;;;;;;;2.50;2.30;;;;;;;13.13;67.93;100567.31;10525752;28;20052;-79
2023/05/07 14:44:16;;;;;;;2.55;2.33;;;;;;;13.45;65.55;100560.09;10558256;28;20062;-78
2023/05/07 14:49:18;;;;;;;2.45;2.25;;;;;;;13.46;66.19;100553.94;10539168;28;20044;-79
2023/05/07 14:54:20;;;;;;;2.05;1.88;;;;;;;13.33;64.29;100560.56;10552593;28;20071;-79
2023/05/07 14:59:21;;;;;;;3.15;2.08;;;;;;;13.23;65.41;100564.41;10535357;28;20036;-79
2023/05/07 15:04:24;;;;;;;2.53;2.33;;;;;;;13.11;66.93;100576.22;10560001;28;20044;-79
2023/05/07 15:09:26;;;;;;;2.60;2.40;;;;;;;13.21;67.52;100576.78;10557120;28;20067;-79
2023/05/07 15:14:27;;;;;;;3.00;2.70;;;;;;;13.05;68.60;100582.56;10560075;28;20046;-79
2023/05/07 15:19:29;;;;;;;3.85;2.80;;;;;;;13.05;67.56;100573.78;10560271;28;20044;-79
2023/05/07 15:24:31;;;;;;;3.20;3.00;;;;;;;12.95;68.29;100573.22;10542112;28;20074;-79
2023/05/07 15:29:33;;;;;;;7.05;3.05;;;;;;;12.87;67.41;100581.38;10531464;28;20058;-80
2023/05/07 15:34:36;;;;;;;4.07;3.63;;;;;;;12.61;68.90;100584.00;10553588;28;20044;-79
2023/05/07 15:39:38;;;;;;;3.65;3.35;;;;;;;12.72;69.60;100597.72;10540993;28;20081;-79
2023/05/07 15:44:40;;;;;;;3.42;3.13;;;;;;;12.68;68.95;100600.50;10537563;28;20094;-79
2023/05/07 15:49:42;;;;;;;3.50;3.28;;;;;;;12.80;68.13;100594.84;10557991;28;20051;-78
2023/05/07 15:54:43;;;;;;;4.28;3.97;;;;;;;12.61;68.71;100598.03;10538480;28;20040;-79
2023/05/07 15:59:46;;;;;;;5.18;4.72;;;;;;;12.30;70.86;100606.00;10559051;28;20071;-79
2023/05/07 16:04:48;;;;;;;4.75;4.30;;;;;;;12.20;72.01;100611.63;10556693;28;20048;-79
2023/05/07 16:09:49;;;;;;;5.43;4.45;;;;;;;12.32;71.12;100606.00;10540176;28;20059;-79
2023/05/07 16:14:51;;;;;;;4.10;3.80;;;;;;;12.09;71.13;100601.41;10560045;28;20072;-78
2023/05/07 16:19:53;;;;;;;4.07;3.70;;;;;;;12.01;71.14;100604.25;10557670;28;20117;-80
2023/05/07 16:24:54;;;;;;;4.35;4.05;;;;;;;11.89;72.25;100604.59;10539878;28;20071;-79
2023/05/07 16:29:56;;;;;;;4.25;3.80;;;;;;;11.92;71.39;100599.25;10557917;28;20044;-80
2023/05/07 16:34:58;;;;;;;4.82;4.53;;;;;;;11.72;72.44;100622.59;10540310;28;20040;-79
2023/05/07 16:40:00;;;;;;;4.82;4.35;;;;;;;11.78;72.94;100614.53;10550501;28;20077;-79
2023/05/07 16:45:06;;;;;;;5.43;5.00;;;;;;;11.68;72.64;100611.25;10556811;28;20040;-79
2023/05/07 16:50:08;;;;;;;4.72;4.43;;;;;;;11.62;73.20;100620.19;10575595;28;20048;-79
2023/05/07 16:55:13;;;;;;;4.47;4.15;;;;;;;11.55;72.85;100616.03;10554688;28;20082;-79
2023/05/07 17:00:18;;;;;;;4.70;4.30;;;;;;;11.50;72.60;100614.41;10545231;28;20099;-79
2023/05/07 17:05:20;;;;;;;4.38;3.97;;;;;;;11.50;71.85;100628.41;10529245;28;20040;-81
2023/05/07 17:10:24;;;;;;;4.90;4.50;;;;;;;11.48;72.49;100629.38;10565293;28;20086;-81
2023/05/07 17:15:26;;;;;;;4.40;4.10;;;;;;;11.51;71.70;100632.81;10534450;28;20100;-81
2023/05/07 17:20:27;;;;;;;4.60;4.20;;;;;;;11.13;72.44;100643.44;10537737;28;20496;-81
2023/05/07 17:25:31;;;;;;;3.92;3.63;;;;;;;11.14;72.80;100643.38;10526617;28;20040;-81
2023/05/07 17:30:33;;;;;;;5.35;4.28;;;;;;;11.07;73.81;100647.94;10562747;28;20052;-81
2023/05/07 17:35:37;;;;;;;5.07;4.68;;;;;;;10.82;74.08;100652.91;10543227;28;20036;-81
2023/05/07 17:40:39;;;;;;;4.45;4.07;;;;;;;10.75;75.73;100647.81;10544096;28;20054;-83
2023/05/07 17:45:44;;;;;;;4.93;4.63;;;;;;;10.64;74.99;100657.72;10542910;28;20086;-82
2023/05/07 17:50:46;;;;;;;5.63;4.43;;;;;;;10.69;74.38;100655.84;10559415;28;20051;-82
2023/05/07 17:55:47;;;;;;;4.57;4.18;;;;;;;10.59;75.41;100652.56;10520175;28;20044;-79
2023/05/07 18:00:52;;;;;;;4.63;4.32;;;;;;;10.37;75.69;100662.66;10558954;28;20123;-78
2023/05/07 18:05:54;;;;;;;4.50;4.20;;;;;;;10.37;75.70;100659.19;10540138;28;20052;-78
2023/05/07 18:10:57;;;;;;;4.47;4.18;;;;;;;10.30;76.62;100664.53;10541457;28;20047;-82
2023/05/07 18:15:58;;;;;;;4.57;4.15;;;;;;;10.25;74.88;100686.56;10559758;28;20040;-83
2023/05/07 18:21:03;;;;;;;4.55;4.20;;;;;;;10.20;74.92;100683.13;10541199;28;20055;-79
2023/05/07 18:26:05;;;;;;;5.05;4.65;;;;;;;10.07;74.95;100682.50;10552928;28;20036;-79
2023/05/07 18:31:09;;;;;;;5.35;4.85;;;;;;;9.91;76.04;100684.53;10554701;28;20066;-79
2023/05/07 18:36:11;;;;;;;5.65;5.15;;;;;;;9.87;75.60;100690.72;10525509;28;20040;-80
2023/05/07 18:41:13;;;;;;;6.35;5.85;;;;;;;9.85;76.01;100696.03;10566154;28;20473;-79
2023/05/07 18:46:15;;;;;;;5.28;4.88;;;;;;;9.89;75.79;100704.72;10563166;28;20373;-78
2023/05/07 18:51:17;;;;;;;5.78;5.28;;;;;;;9.71;76.91;100708.53;10560664;28;20090;-79
2023/05/07 18:56:20;;;;;;;5.88;5.47;;;;;;;9.77;76.71;100716.31;10554406;28;20497;-78
2023/05/07 19:01:22;;;;;;;5.90;5.50;;;;;;;9.65;78.10;100719.16;10563830;28;20489;-78
2023/05/07 19:06:24;;;;;;;5.88;5.45;;;;;;;9.66;77.88;100715.63;10534834;28;20050;-79
2023/05/07 19:11:26;;;;;;;6.45;5.85;;;;;;;9.58;77.49;100705.25;10562514;28;20073;-79
2023/05/07 19:16:28;;;;;;;5.75;5.35;;;;;;;9.46;78.44;100715.09;10539274;28;20047;-79
2023/05/07 19:21:40;;;;;;;6.28;5.68;;;;;;;9.43;78.96;100716.03;10541367;28;20085;-78
2023/05/07 19:27:07;;;;;;;6.90;6.35;;;;;;;9.36;79.71;100722.25;10557260;28;20056;-83
2023/05/07 19:32:09;;;;;;;6.03;5.53;;;;;;;9.13;80.95;100725.22;10558112;28;20073;-79
2023/05/07 19:37:11;;;;;;;6.38;5.97;;;;;;;9.27;80.03;100727.66;10520080;28;20047;-79
2023/05/07 19:42:13;;;;;;;6.68;6.18;;;;;;;9.23;78.94;100729.44;10556424;28;20478;-78
2023/05/07 19:47:15;;;;;;;6.43;5.93;;;;;;;9.12;79.74;100736.63;10539948;28;20040;-79
2023/05/07 19:52:17;;;;;;;7.88;7.32;;;;;;;9.02;80.39;100745.47;10537048;28;20044;-80
2023/05/07 19:57:18;;;;;;;7.45;6.85;;;;;;;9.03;80.00;100745.47;10543570;28;20113;-79
2023/05/07 20:02:20;;;;;;;6.35;5.95;;;;;;;8.97;80.94;100756.03;10562576;28;20038;-78
2023/05/07 20:07:22;;;;;;;6.28;5.88;;;;;;;9.01;80.35;100762.97;10560234;28;20058;-80
2023/05/07 20:12:24;;;;;;;5.75;5.35;;;;;;;8.94;79.91;100768.31;10538455;28;20047;-78
2023/05/07 20:17:25;;;;;;;5.95;5.55;;;;;;;8.91;80.24;100774.50;10557269;28;20044;-80
2023/05/07 20:22:30;;;;;;;6.45;5.90;;;;;;;8.77;80.63;100776.44;10557778;28;20051;-79
2023/05/07 20:27:33;;;;;;;5.70;5.20;;;;;;;8.79;79.64;100772.00;10558185;28;20036;-78
2023/05/07 20:32:35;;;;;;;5.20;4.80;;;;;;;8.58;81.28;100784.47;10555741;28;20040;-78
2023/05/07 20:37:38;;;;;;;5.60;5.20;;;;;;;8.72;80.20;100786.06;10533312;28;20047;-79
2023/05/07 20:42:41;;;;;;;5.13;4.72;;;;;;;8.80;79.50;100790.34;10552655;28;20043;-79
2023/05/07 20:47:43;;;;;;;4.72;4.30;;;;;;;8.78;80.38;100799.13;10551619;28;20040;-78
2023/05/07 20:52:45;;;;;;;4.68;4.05;;;;;;;8.88;78.63;100798.13;10551694;28;20044;-78
2023/05/07 20:57:46;;;;;;;4.65;4.20;;;;;;;8.94;77.41;100795.44;10578925;28;20048;-78
2023/05/07 21:02:48;;;;;;;3.95;3.65;;;;;;;8.90;77.77;100795.47;10567152;28;20048;-79
2023/05/07 21:07:50;;;;;;;4.13;3.72;;;;;;;8.86;76.02;100797.28;10583491;28;20028;-80
2023/05/07 21:12:52;;;;;;;4.03;3.72;;;;;;;8.83;76.13;100797.31;10569609;28;20044;-78
2023/05/07 21:17:53;;;;;;;5.78;3.72;;;;;;;8.81;75.79;100796.47;10566364;28;20043;-79
2023/05/07 21:22:55;;;;;;;4.30;3.97;;;;;;;8.71;76.49;100797.44;10576933;28;20064;-79
2023/05/07 21:27:57;;;;;;;4.07;3.78;;;;;;;8.51;77.63;100797.69;10577462;28;20112;-78
2023/05/07 21:32:59;;;;;;;4.82;3.95;;;;;;;8.46;76.97;100810.84;10545651;28;20048;-78
2023/05/07 21:38:01;;;;;;;4.03;3.72;;;;;;;8.39;77.52;100811.78;10546510;28;20068;-79
2023/05/07 21:43:03;;;;;;;4.53;4.20;;;;;;;8.44;77.39;100812.59;10538085;28;20497;-78
2023/05/07 21:48:06;;;;;;;4.00;3.70;;;;;;;8.01;79.73;100812.09;10560837;28;20050;-78
2023/05/07 21:53:07;;;;;;;4.28;3.97;;;;;;;8.03;78.72;100812.97;10560386;28;20515;-78
2023/05/07 21:58:09;;;;;;;4.50;4.20;;;;;;;8.09;78.82;100829.50;10524441;28;20044;-78
2023/05/07 22:03:11;;;;;;;4.65;3.97;;;;;;;8.01;79.72;100825.19;10559435;28;20454;-78
2023/05/07 22:08:13;;;;;;;4.35;3.95;;;;;;;7.98;79.76;100831.34;10557470;28;20040;-78
2023/05/07 22:13:15;;;;;;;4.30;4.00;;;;;;;7.88;80.28;100834.94;10561037;28;20048;-78
2023/05/07 22:18:17;;;;;;;4.72;4.32;;;;;;;7.84;80.35;100821.00;10559514;28;20485;-78
2023/05/07 22:23:19;;;;;;;4.50;4.15;;;;;;;7.80;80.41;100821.91;10538308;28;20039;-78
2023/05/07 22:28:20;;;;;;;4.93;4.53;;;;;;;7.65;82.03;100823.75;10540795;28;20044;-78
2023/05/07 22:33:22;;;;;;;4.10;3.80;;;;;;;7.53;82.91;100815.13;10558492;28;20047;-78
2023/05/07 22:38:24;;;;;;;4.72;4.32;;;;;;;7.40;84.44;100818.69;10542436;28;20090;-78
2023/05/07 22:43:26;;;;;;;5.00;4.60;;;;;;;7.28;85.55;100822.25;10565065;28;20116;-78
2023/05/07 22:48:28;;;;;;;6.30;4.55;;;;;;;7.29;86.03;100816.13;10577432;28;20040;-78
2023/05/07 22:53:30;;;;;;;4.95;4.55;;;;;;;7.44;85.18;100820.41;10568083;28;20046;-78
2023/05/07 22:58:32;;;;;;;5.50;4.97;;;;;;;7.28;87.08;100814.41;10566593;28;20111;-78
2023/05/07 23:03:33;;;;;;;5.15;4.80;;;;;;;7.24;86.79;100807.44;10584987;28;20044;-77
2023/05/07 23:08:35;;;;;;;4.90;4.57;;;;;;;7.39;86.26;100819.56;10578882;28;20061;-78
2023/05/07 23:13:37;;;;;;;4.68;4.28;;;;;;;7.53;85.01;100819.50;10586223;28;20058;-78